Latest Coastal Weather Observations for Cape Otway

IDV60701

Issued at 2:15 pm EST Sunday 21 September 2014 (issued every 10 minutes, with the page automatically refreshed every 10 minutes)

About coastal observations | Map of coastal stations | Coastal observations for VIC | Marine services | Other Formats
Station Details ID: 090015 Name: CAPE OTWAY LIGHTHOUSE Lat: -38.86 Lon: 143.51 Height: 82.0 m
Data from the previous 72 hours. | See also: Recent months at Cape Otway
Date/Time
EST
Temp

°C
Wind Pressure Rain
since 9am
mm
Weather Cloud Vis
km
Sea
Height
m
Swell
Dir
 
Speed
knots
Gust
knots
hPa Trend Height
m
Period
s
Dir
21/02:00pm 14.5 S 4 6 1031.1 - 0.2 - - - - - - -
21/01:30pm 15.1 S 4 7 1031.3 - 0.2 - - - - - - -
21/01:00pm 14.8 SE 5 7 1031.5 - 0.2 - - - - - - -
21/12:30pm 14.7 S 4 7 1031.9 - 0.2 - - - - - - -
21/12:00pm 13.4 S 5 8 1032.3 - 0.2 - - - - - - -
21/11:30am 13.8 ESE 2 5 1032.5 - 0.0 - - - - - - -
21/11:00am 13.3 SE 4 6 1032.8 - 0.0 - - - - - - -
21/10:30am 13.5 S 4 5 1032.9 - 0.0 - - - - - - -
21/10:00am 12.6 SW 3 6 1032.8 - 0.0 - - - - - - -
21/09:30am 12.1 WSW 5 8 1032.7 - 0.0 - - - - - - -
21/09:00am 12.2 SSE 4 6 1032.6 R 0.0 Fine Mostly cloudy 20 1 2.0 9 S
21/08:30am 12.0 SSW 4 8 1032.3 - 0.0 - - - - - - -
21/08:00am 11.8 SW 4 8 1031.8 - 0.0 - - - - - - -
21/07:30am 11.4 NNE 2 5 1031.4 - 0.0 - - - - - - -
21/07:00am 11.2 WSW 3 6 1031.2 - 0.0 - - - - - - -
21/06:30am 11.2 SW 4 6 1031.0 - 0.0 - - - - - - -
21/06:00am 10.4 CALM 0 2 1030.9 - 0.0 - - - - - - -
21/05:30am 11.3 SSW 6 10 1030.6 - 0.0 - - - - - - -
21/05:00am 10.6 E 1 7 1030.4 - 0.0 - - - - - - -
21/04:30am 10.7 SE 1 6 1030.2 - 0.0 - - - - - - -
21/04:00am 11.3 S 1 6 1030.2 - 0.0 - - - - - - -
21/03:30am 11.7 SW 5 8 1030.3 - 0.0 - - - - - - -
21/03:00am 11.5 S 2 4 1030.3 - 0.0 - - - - - - -
21/02:30am 11.6 SSW 4 8 1030.4 - 0.0 - - - - - - -
21/02:00am 11.5 E 1 5 1030.6 - 0.0 - - - - - - -
21/01:30am 11.7 SSW 5 8 1030.9 - 0.0 - - - - - - -
21/01:00am 11.8 SSW 8 12 1031.1 - 0.0 - - - - - - -
21/12:30am 11.8 SSW 3 7 1031.0 - 0.0 - - - - - - -
21/12:00am 11.8 SW 4 9 1031.0 - 0.0 - - - - - - -
 
Date/Time
EST
Temp

°C
Wind Pressure Rain
since 9am
mm
Weather Cloud Vis
km
Sea
Height
m
Swell
Dir
 
Speed
knots
Gust
knots
hPa Trend Height
m
Period
s
Dir
20/11:30pm 11.9 SW 5 7 1030.9 - 0.0 - - - - - - -
20/11:00pm 12.0 SW 6 10 1030.9 - 0.0 - - - - - - -
20/10:30pm 12.0 SSW 7 10 1030.9 - 0.0 - - - - - - -
20/10:00pm 11.9 SE 5 9 1031.0 - 0.0 - - - - - - -
20/09:30pm 11.9 SSW 7 11 1030.9 - 0.0 - - - - - - -
20/09:00pm 12.0 SW 5 6 1030.6 - 0.0 - - - - - - -
20/08:30pm 12.0 SW 5 8 1030.5 - 0.0 - - - - - - -
20/08:00pm 12.1 SW 5 7 1030.5 - 0.0 - - - - - - -
20/07:30pm 12.1 SW 6 8 1030.3 - 0.0 - - - - - - -
20/07:00pm 12.1 SW 5 8 1030.3 - 0.0 - - - - - - -
20/06:30pm 12.0 SSW 10 13 1030.0 - 0.0 - - - - - - -
20/06:00pm 12.0 SW 8 12 1029.8 - 0.0 - - - - - - -
20/05:30pm 12.3 SW 7 11 1029.4 - 0.0 - - - - - - -
20/05:00pm 12.3 SW 7 9 1029.1 - 0.0 - - - - - - -
20/04:30pm 12.3 SW 6 9 1028.9 - 0.0 - - - - - - -
20/04:00pm 12.3 SW 4 6 1028.9 - 0.0 - - - - - - -
20/03:30pm 12.5 SW 7 10 1028.6 - 0.0 - - - - - - -
20/03:00pm 12.1 SW 8 11 1028.8 R 0.0 Fine Mostly cloudy 20 1 2.0 10 S
20/02:30pm 12.9 SW 6 10 1028.6 - 0.0 - - - - - - -
20/02:00pm 13.5 SSW 6 8 1028.6 - 0.0 - - - - - - -
20/01:30pm 13.8 SSW 5 7 1028.5 - 0.0 - - - - - - -
20/01:00pm 13.8 SSW 5 7 1028.5 - 0.0 - - - - - - -
20/12:30pm 13.7 SW 6 9 1028.6 - 0.0 - - - - - - -
20/12:00pm 14.1 S 5 7 1028.8 - 0.0 - - - - - - -
20/11:30am 13.9 SSW 5 7 1028.7 - 0.0 - - - - - - -
20/11:00am 13.0 SSW 6 10 1028.8 - 0.0 - - - - - - -
20/10:30am 13.0 SSW 7 9 1028.9 - 0.0 - - - - - - -
20/10:00am 12.8 SSW 7 11 1028.9 - 0.0 - - - - - - -
20/09:30am 13.0 SW 6 9 1028.9 - 0.0 - - - - - - -
20/09:00am 12.5 SW 6 8 1028.8 R 0.6 Fine Mostly cloudy 20 1 2.0 8 S
20/08:30am 12.0 SW 6 9 1028.3 - 0.6 - - - - - - -
20/08:00am 11.7 SW 7 9 1028.1 - 0.6 - - - - - - -
20/07:30am 11.7 SSW 10 13 1027.8 - 0.6 - - - - - - -
20/07:00am 11.1 W 7 10 1027.6 - 0.6 - - - - - - -
20/06:30am 11.1 WSW 10 14 1027.4 - 0.6 - - - - - - -
20/06:00am 11.2 SW 7 9 1027.1 - 0.6 - - - - - - -
20/05:30am 11.3 SSW 10 13 1026.4 - 0.6 - - - - - - -
20/05:00am 11.3 SSW 11 17 1025.8 - 0.6 - - - - - - -
20/04:30am 11.3 SSW 11 15 1025.6 - 0.6 - - - - - - -
20/04:00am 11.5 SSW 7 12 1025.5 - 0.6 - - - - - - -
20/03:30am 11.6 SW 7 15 1025.4 - 0.6 - - - - - - -
20/03:00am 11.3 SW 9 13 1025.7 - 0.6 - - - - - - -
20/02:30am 11.6 SSW 11 15 1025.5 - 0.6 - - - - - - -
20/02:00am 11.6 SSW 14 19 1025.6 - 0.6 - - - - - - -
20/01:30am 11.7 SW 12 16 1025.8 - 0.6 - - - - - - -
20/01:00am 11.6 SSW 15 19 1025.8 - 0.6 - - - - - - -
20/12:30am 11.5 SSW 13 19 1025.7 - 0.6 - - - - - - -
20/12:00am 11.0 WSW 9 12 1025.9 - 0.6 - - - - - - -
 
Date/Time
EST
Temp

°C
Wind Pressure Rain
since 9am
mm
Weather Cloud Vis
km
Sea
Height
m
Swell
Dir
 
Speed
knots
Gust
knots
hPa Trend Height
m
Period
s
Dir
19/11:30pm 11.1 WSW 12 18 1025.8 - 0.6 - - - - - - -
19/11:00pm 11.3 SSW 10 13 1025.8 - 0.6 - - - - - - -
19/10:30pm 11.1 WSW 9 13 1026.0 - 0.6 - - - - - - -
19/10:00pm 11.5 SW 15 21 1026.0 - 0.6 - - - - - - -
19/09:30pm 11.4 SW 12 18 1026.1 - 0.6 - - - - - - -
19/09:00pm 11.6 SW 17 22 1026.1 - 0.6 - - - - - - -
19/08:30pm 11.5 SW 13 18 1025.8 - 0.6 - - - - - - -
19/08:00pm 11.0 SW 12 17 1025.9 - 0.6 - - - - - - -
19/07:30pm 10.5 SW 17 24 1025.7 - 0.6 - - - - - - -
19/07:21pm 11.5 SW 15 25 1025.5 - 0.6 - - - - - - -
19/07:20pm 11.5 SW 15 25 1025.5 - 0.6 - - - - - - -
19/07:00pm 11.6 SW 13 17 1025.4 - 0.6 - - - - - - -
19/06:30pm 11.7 SW 15 20 1025.2 - 0.6 - - - - - - -
19/06:00pm 11.8 SW 15 19 1025.0 - 0.6 - - - - - - -
19/05:30pm 11.8 WSW 13 17 1024.8 - 0.6 - - - - - - -
19/05:00pm 12.1 WSW 13 18 1024.6 - 0.6 - - - - - - -
19/04:30pm 12.0 WSW 11 17 1024.5 - 0.6 - - - - - - -
19/04:00pm 12.0 W 10 14 1024.5 - 0.6 - - - - - - -
19/03:30pm 11.8 SW 14 21 1024.5 - 0.6 - - - - - - -
19/03:00pm 12.3 WSW 12 20 1024.5 R 0.6 Distant precip. Mostly cloudy 20 2 2.0 9 S
19/02:30pm 12.4 WSW 10 14 1024.5 - 0.6 - - - - - - -
19/02:00pm 12.9 WSW 12 16 1024.4 - 0.6 - - - - - - -
19/01:30pm 11.2 SW 15 20 1024.5 - 0.6 - - - - - - -
19/01:00pm 11.0 W 12 17 1024.8 - 0.2 - - - - - - -
19/12:30pm 11.4 W 11 19 1024.8 - 0.0 - - - - - - -
19/12:00pm 12.6 W 9 14 1025.1 - 0.0 - - - - - - -
19/11:30am 12.0 SW 13 17 1025.1 - 0.0 - - - - - - -
19/11:00am 11.3 SW 17 25 1025.0 - 0.0 - - - - - - -
19/10:57am 12.4 WSW 15 25 1025.0 - 0.0 - - - - - - -
19/10:56am 12.4 WSW 15 25 1025.0 - 0.0 - - - - - - -
19/10:30am 12.1 WSW 12 17 1025.2 - 0.0 - - - - - - -
19/10:00am 12.0 WSW 14 21 1025.2 - 0.0 - - - - - - -
19/09:30am 12.5 SW 14 19 1025.2 - 0.0 - - - - - - -
19/09:00am 11.9 W 12 16 1025.4 R 0.4 Distant precip. Partly cloudy 20 2 2.0 9 S
19/08:30am 12.0 WSW 13 18 1025.0 - 0.4 - - - - - - -
19/08:00am 12.2 SW 15 19 1025.0 - 0.4 - - - - - - -
19/07:30am 11.6 WSW 13 19 1024.7 - 0.4 - - - - - - -
19/07:00am 11.3 WSW 14 19 1024.3 - 0.4 - - - - - - -
19/06:30am 11.1 SW 16 22 1024.0 - 0.4 - - - - - - -
19/06:00am 11.2 SW 17 20 1023.9 - 0.4 - - - - - - -
19/05:30am 11.1 WSW 14 19 1023.6 - 0.4 - - - - - - -
19/05:00am 11.1 SW 14 19 1023.6 - 0.4 - - - - - - -
19/04:30am 11.0 WSW 13 19 1023.6 - 0.4 - - - - - - -
19/04:00am 10.9 WSW 10 15 1023.6 - 0.4 - - - - - - -
19/03:30am 10.9 SW 18 25 1023.7 - 0.4 - - - - - - -
19/03:24am 10.4 SW 20 25 1023.6 - 0.4 - - - - - - -
19/03:20am 10.5 SW 21 25 1023.6 - 0.6 - - - - - - -
19/03:00am 11.2 WSW 13 20 1023.8 - 0.4 - - - - - - -
19/02:30am 11.1 W 12 17 1023.8 - 0.4 - - - - - - -
19/02:00am 11.0 WSW 12 17 1024.0 - 0.4 - - - - - - -
19/01:30am 11.1 WSW 15 19 1024.1 - 0.4 - - - - - - -
19/01:00am 11.0 WSW 15 22 1024.4 - 0.4 - - - - - - -
19/12:30am 10.7 WSW 13 20 1024.5 - 0.4 - - - - - - -
19/12:00am 11.0 WSW 13 17 1024.7 - 0.4 - - - - - - -
 
Date/Time
EST
Temp

°C
Wind Pressure Rain
since 9am
mm
Weather Cloud Vis
km
Sea
Height
m
Swell
Dir
 
Speed
knots
Gust
knots
hPa Trend Height
m
Period
s
Dir
18/11:30pm 11.3 WSW 13 17 1024.7 - 0.4 - - - - - - -
18/11:00pm 10.9 SW 15 21 1024.8 - 0.4 - - - - - - -
18/10:30pm 10.9 WSW 11 17 1024.9 - 0.4 - - - - - - -
18/10:00pm 11.2 WSW 13 18 1025.1 - 0.4 - - - - - - -
18/09:30pm 11.3 SW 15 21 1025.0 - 0.4 - - - - - - -
18/09:00pm 11.2 WSW 12 20 1025.1 - 0.4 - - - - - - -
18/08:30pm 11.3 SW 15 21 1024.8 - 0.4 - - - - - - -
18/08:00pm 11.1 SW 11 15 1024.7 - 0.4 - - - - - - -
18/07:30pm 11.1 SW 13 18 1024.7 - 0.4 - - - - - - -
18/07:00pm 11.0 SSW 14 21 1024.5 - 0.4 - - - - - - -
18/06:30pm 11.0 SW 16 21 1024.4 - 0.4 - - - - - - -
18/06:00pm 11.2 SW 16 22 1024.4 - 0.4 - - - - - - -
18/05:30pm 11.6 SW 16 21 1024.1 - 0.4 - - - - - - -
18/05:00pm 11.4 SW 16 20 1023.8 - 0.4 - - - - - - -
18/04:30pm 11.6 SW 15 20 1023.7 - 0.4 - - - - - - -
18/04:00pm 12.2 SW 15 20 1023.6 - 0.4 - - - - - - -
18/03:30pm 12.5 SW 15 18 1023.4 - 0.4 - - - - - - -
18/03:00pm 11.9 SW 15 19 1023.5 R 0.4 Distant precip. Mostly cloudy 20 2 2.0 9 S
18/02:30pm 11.3 SW 15 21 1023.5 - 0.4 - - - - - - -

Other Formats:

Comma delimited format used in spreadsheet applications
http://www.bom.gov.au/fwo/IDV60701/IDV60701.94842.axf

JavaScript Object Notation format (JSON) in row-major order
http://www.bom.gov.au/fwo/IDV60701/IDV60701.94842.json